San Francisco, California
Traffic Map
Current Weather Conditions
San Francisco, California
Few Clouds
Few Clouds
13°
Feels Like: 13°
Wind Chill: 13° Ceiling: Unl
Heat Index: 13° Visibility: 10mi
Dew Point: 10° Wind: 0mph
Humidity: 83% Direction: ° ()
Pressure: 30.29in Gusts: 0mph
Raw Report DataKSFO 071656Z 00000KT 10SM FEW200 13/10 A3029 RMK AO2 SLP256 T01280100
Traffic Incident Summary
Active as of:
Severity:
Category:
InformationThere was an issue retrieving the traffic information for this location. Please try a different location or try again shortly.
Advertisements
Track Severe Weather on mobile